createdAt,value
2023-04-18T00:01:31.908Z,30.42
2023-04-18T00:04:03.504Z,30.44
2023-04-18T00:06:34.162Z,30.48
2023-04-18T00:09:05.072Z,30.49
2023-04-18T00:11:36.292Z,30.51
2023-04-18T00:14:07.846Z,30.55
2023-04-18T00:16:39.520Z,30.55
2023-04-18T00:19:10.387Z,30.58
2023-04-18T00:21:46.178Z,30.60
2023-04-18T00:24:16.319Z,30.63
2023-04-18T00:26:46.500Z,30.63
2023-04-18T00:29:16.532Z,30.66
2023-04-18T00:31:46.650Z,30.69
2023-04-18T00:34:31.366Z,30.69
2023-04-18T00:37:01.665Z,30.69
2023-04-18T00:39:31.949Z,30.69
2023-04-18T00:42:02.968Z,30.72
2023-04-18T00:44:33.416Z,30.75
2023-04-18T00:47:03.528Z,30.77
2023-04-18T00:49:34.525Z,30.80
2023-04-18T00:52:04.916Z,30.80
2023-04-18T00:54:36.069Z,30.88
2023-04-18T00:57:06.607Z,30.84
2023-04-18T00:59:37.228Z,30.87
2023-04-18T01:02:07.694Z,30.90
2023-04-18T01:04:38.880Z,30.93
2023-04-18T01:07:12.723Z,30.96
2023-04-18T01:09:43.184Z,31.00
2023-04-18T01:12:13.527Z,31.02
2023-04-18T01:14:46.693Z,31.04
2023-04-18T01:17:17.756Z,31.07
2023-04-18T01:19:50.592Z,31.08
2023-04-18T01:22:21.449Z,31.12
2023-04-18T01:24:51.919Z,31.14
2023-04-18T01:27:22.210Z,31.16
2023-04-18T01:29:52.285Z,31.19
2023-04-18T01:32:23.223Z,31.22
2023-04-18T01:34:53.441Z,31.24
2023-04-18T01:37:24.043Z,31.26
2023-04-18T01:39:55.234Z,31.27
2023-04-18T01:42:25.903Z,31.30
2023-04-18T01:44:56.040Z,31.32
2023-04-18T01:47:26.145Z,31.34
2023-04-18T01:49:56.478Z,31.36
2023-04-18T01:52:27.579Z,31.38
2023-04-18T01:54:57.754Z,31.40
2023-04-18T01:57:28.045Z,31.42
2023-04-18T01:59:58.536Z,31.44
2023-04-18T02:02:28.781Z,31.46
2023-04-18T02:04:58.941Z,31.48
2023-04-18T02:07:29.146Z,31.50
2023-04-18T02:10:00.187Z,31.53
2023-04-18T02:12:30.277Z,31.54
2023-04-18T02:15:00.404Z,31.58
2023-04-18T02:17:31.914Z,31.58
2023-04-18T02:20:02.401Z,31.61
2023-04-18T02:22:32.902Z,31.63
2023-04-18T02:25:04.295Z,31.65
2023-04-18T02:27:34.938Z,31.68
2023-04-18T02:30:05.599Z,31.69
2023-04-18T02:32:37.483Z,31.73
2023-04-18T02:35:08.377Z,31.74
2023-04-18T02:37:38.436Z,31.75
2023-04-18T02:40:08.918Z,31.78
2023-04-18T02:42:39.111Z,31.81
2023-04-18T02:45:10.262Z,31.84
2023-04-18T02:47:53.700Z,31.87
2023-04-18T02:50:25.701Z,31.89
2023-04-18T02:52:58.080Z,31.91
2023-04-18T02:55:37.026Z,31.94
2023-04-18T02:58:07.575Z,31.97
2023-04-18T03:01:09.794Z,31.99
2023-04-18T03:04:00.055Z,32.02
2023-04-18T03:07:00.840Z,31.77
2023-04-18T03:09:34.766Z,32.03
2023-04-18T03:12:10.303Z,32.09
2023-04-18T03:14:40.597Z,32.12
2023-04-18T03:17:11.480Z,32.15
2023-04-18T03:19:46.852Z,32.18
2023-04-18T03:22:18.897Z,32.20
2023-04-18T03:24:56.654Z,32.22
2023-04-18T03:27:42.019Z,32.25
2023-04-18T03:30:12.821Z,32.27
2023-04-18T03:32:45.083Z,32.30
2023-04-18T03:35:16.676Z,32.32
2023-04-18T03:37:46.981Z,32.33
2023-04-18T03:40:24.865Z,32.35
2023-04-18T03:42:57.845Z,32.36
2023-04-18T03:45:27.951Z,32.38
2023-04-18T03:47:58.914Z,32.39
2023-04-18T03:50:30.074Z,32.39
2023-04-18T03:53:01.073Z,32.41
2023-04-18T03:55:35.649Z,32.42
2023-04-18T03:58:06.288Z,32.42
2023-04-18T04:00:37.312Z,32.43
2023-04-18T04:03:11.566Z,32.43
2023-04-18T04:05:42.997Z,32.45
2023-04-18T04:08:13.180Z,32.46
2023-04-18T04:10:43.300Z,32.46
2023-04-18T04:13:14.210Z,32.28
2023-04-18T04:15:44.893Z,32.49
2023-04-18T04:18:15.213Z,32.51
2023-04-18T04:20:50.042Z,32.52
2023-04-18T04:23:35.846Z,32.54
2023-04-18T04:26:06.229Z,32.55
2023-04-18T04:28:47.857Z,32.56
2023-04-18T04:31:23.624Z,32.57
2023-04-18T04:33:54.762Z,32.58
2023-04-18T04:36:32.086Z,32.58
2023-04-18T04:39:07.463Z,32.60
2023-04-18T04:41:54.827Z,32.62
2023-04-18T04:44:28.425Z,32.62
2023-04-18T04:46:59.112Z,32.62
2023-04-18T04:49:35.586Z,32.65
2023-04-18T04:52:07.865Z,32.66
2023-04-18T04:54:38.003Z,32.66
2023-04-18T04:57:11.095Z,32.66
2023-04-18T04:59:41.585Z,32.68
2023-04-18T05:02:11.917Z,32.69
2023-04-18T05:04:42.181Z,32.70
2023-04-18T05:07:12.608Z,32.71
2023-04-18T05:09:42.781Z,32.72
2023-04-18T05:12:12.845Z,32.72
2023-04-18T05:14:43.018Z,32.74
2023-04-18T05:17:13.195Z,32.75
2023-04-18T05:19:45.485Z,32.51
2023-04-18T05:22:15.485Z,32.77
2023-04-18T05:24:45.596Z,32.79
2023-04-18T05:27:17.696Z,32.80
2023-04-18T05:29:49.362Z,32.82
2023-04-18T05:32:19.509Z,32.84
2023-04-18T05:34:50.097Z,32.84
2023-04-18T05:37:20.877Z,32.86
2023-04-18T05:39:51.291Z,32.88
2023-04-18T05:42:21.798Z,32.90
2023-04-18T05:44:52.016Z,32.92
2023-04-18T05:47:22.499Z,32.93
2023-04-18T05:49:52.898Z,32.96
2023-04-18T05:52:23.078Z,32.98
2023-04-18T05:54:53.584Z,32.98
2023-04-18T05:57:23.672Z,33.01
2023-04-18T05:59:53.860Z,33.03
2023-04-18T06:02:24.104Z,33.05
2023-04-18T06:04:54.415Z,33.07
2023-04-18T06:07:26.721Z,33.09
2023-04-18T06:09:57.423Z,33.11
2023-04-18T06:12:27.495Z,33.13
2023-04-18T06:14:57.636Z,33.15
2023-04-18T06:17:27.800Z,33.18
2023-04-18T06:19:57.991Z,33.20
2023-04-18T06:22:28.142Z,33.22
2023-04-18T06:24:58.339Z,33.24
2023-04-18T06:27:31.434Z,33.27
2023-04-18T06:30:02.811Z,33.29
2023-04-18T06:32:33.623Z,33.32
2023-04-18T06:35:04.007Z,33.34
2023-04-18T06:37:45.411Z,33.37
2023-04-18T06:40:15.816Z,33.41
2023-04-18T06:42:45.930Z,33.43
2023-04-18T06:45:16.004Z,33.46
2023-04-18T06:47:46.492Z,33.49
2023-04-18T06:50:16.876Z,33.52
2023-04-18T06:52:47.236Z,33.55
2023-04-18T06:55:17.696Z,33.57
2023-04-18T06:57:47.974Z,33.61
2023-04-18T07:00:18.184Z,33.64
2023-04-18T07:02:48.513Z,33.67
2023-04-18T07:05:18.979Z,33.70
2023-04-18T07:07:49.182Z,33.73
2023-04-18T07:10:19.654Z,33.76
2023-04-18T07:12:49.695Z,33.81
2023-04-18T07:15:20.105Z,33.85
2023-04-18T07:17:50.334Z,33.90
2023-04-18T07:20:20.454Z,33.93
2023-04-18T07:22:50.667Z,33.95
2023-04-18T07:25:21.239Z,33.98
2023-04-18T07:27:51.751Z,34.02
2023-04-18T07:30:21.823Z,34.06
2023-04-18T07:32:52.015Z,34.08
2023-04-18T07:35:23.257Z,34.13
2023-04-18T07:37:55.229Z,34.16
2023-04-18T07:40:25.310Z,34.20
2023-04-18T07:42:55.404Z,34.22
2023-04-18T07:45:25.705Z,34.26
2023-04-18T07:47:56.156Z,34.29
2023-04-18T07:50:26.346Z,34.34
2023-04-18T07:52:56.528Z,34.37
2023-04-18T07:55:26.733Z,34.40
2023-04-18T07:57:56.959Z,34.42
2023-04-18T08:00:27.720Z,34.45
2023-04-18T08:02:58.364Z,34.49
2023-04-18T08:05:29.247Z,34.51
2023-04-18T08:07:59.735Z,34.52
2023-04-18T08:10:30.486Z,34.55
2023-04-18T08:13:01.512Z,34.58
2023-04-18T08:15:33.732Z,34.60
2023-04-18T08:18:04.486Z,34.62
2023-04-18T08:20:35.874Z,34.63
2023-04-18T08:23:09.553Z,34.65
2023-04-18T08:25:41.588Z,34.67
2023-04-18T08:28:12.427Z,34.69
2023-04-18T08:30:43.848Z,34.71
2023-04-18T08:33:14.013Z,34.73
2023-04-18T08:35:44.568Z,34.73
2023-04-18T08:38:15.465Z,34.76
2023-04-18T08:40:45.831Z,34.77
2023-04-18T08:43:17.088Z,34.78
2023-04-18T08:45:47.361Z,34.80
2023-04-18T08:48:17.765Z,34.81
2023-04-18T08:50:49.180Z,34.82
2023-04-18T08:53:20.273Z,34.83
2023-04-18T08:55:55.422Z,34.83
2023-04-18T08:58:27.023Z,34.85
2023-04-18T09:00:57.750Z,34.85
2023-04-18T09:03:44.002Z,34.87
2023-04-18T09:06:20.278Z,34.73
2023-04-18T09:09:04.428Z,34.51
2023-04-18T09:11:35.841Z,34.36
2023-04-18T09:14:06.039Z,34.29
2023-04-18T09:16:48.100Z,34.24
2023-04-18T09:19:20.870Z,34.19
2023-04-18T09:21:58.637Z,34.18
2023-04-18T09:24:30.050Z,34.16
2023-04-18T09:27:01.268Z,34.17
2023-04-18T09:29:48.175Z,34.14
2023-04-18T09:32:26.314Z,34.12
2023-04-18T09:35:00.595Z,34.10
2023-04-18T09:37:32.730Z,34.09
2023-04-18T09:40:17.574Z,34.09
2023-04-18T09:42:49.463Z,34.07
2023-04-18T09:45:19.597Z,34.07
2023-04-18T09:47:50.174Z,34.04
2023-04-18T09:50:22.240Z,34.07
2023-04-18T09:52:52.626Z,34.02
2023-04-18T09:55:23.465Z,34.01
2023-04-18T09:57:55.217Z,33.97
2023-04-18T10:00:26.876Z,33.94
2023-04-18T10:02:57.658Z,33.95
2023-04-18T10:05:33.252Z,33.94
2023-04-18T10:08:04.505Z,33.92
2023-04-18T10:10:34.756Z,33.89
2023-04-18T10:13:07.191Z,33.87
2023-04-18T10:15:37.693Z,33.83
2023-04-18T10:18:12.044Z,33.85
2023-04-18T10:20:43.204Z,33.85
2023-04-18T10:23:31.924Z,33.84
2023-04-18T10:26:02.918Z,33.82
2023-04-18T10:28:53.329Z,33.77
2023-04-18T10:31:28.620Z,33.76
2023-04-18T10:34:05.816Z,33.78
2023-04-18T10:36:37.448Z,33.75
2023-04-18T10:39:23.735Z,33.74
2023-04-18T10:41:54.456Z,33.70
2023-04-18T10:44:24.856Z,33.72
2023-04-18T10:46:55.182Z,33.68
2023-04-18T10:49:27.828Z,33.65
2023-04-18T10:52:00.444Z,33.64
2023-04-18T10:54:32.325Z,33.61
2023-04-18T10:57:04.870Z,33.59
2023-04-18T10:59:35.911Z,33.57
2023-04-18T11:02:08.809Z,33.56
2023-04-18T11:04:39.399Z,33.56
2023-04-18T11:07:09.678Z,33.52
2023-04-18T11:09:40.447Z,33.52
2023-04-18T11:12:12.246Z,33.54
2023-04-18T11:14:50.253Z,33.53
2023-04-18T11:17:25.138Z,33.52
2023-04-18T11:20:02.796Z,33.54
2023-04-18T11:22:33.141Z,33.52
2023-04-18T11:25:09.398Z,33.51
2023-04-18T11:27:40.102Z,33.50
2023-04-18T11:30:10.962Z,33.52
2023-04-18T11:32:41.852Z,33.59
2023-04-18T11:35:13.569Z,33.55
2023-04-18T11:37:44.566Z,33.47
2023-04-18T11:40:15.870Z,33.45
2023-04-18T11:42:46.193Z,33.37
2023-04-18T11:45:17.643Z,33.34
2023-04-18T11:47:47.982Z,33.30
2023-04-18T11:50:18.450Z,33.30
2023-04-18T11:52:51.607Z,33.28
2023-04-18T11:55:23.190Z,33.26
2023-04-18T11:57:54.860Z,33.26
2023-04-18T12:00:41.497Z,33.24
2023-04-18T12:03:18.725Z,33.18
2023-04-18T12:05:49.420Z,33.19
2023-04-18T12:08:21.435Z,33.25
2023-04-18T12:10:52.400Z,33.28
2023-04-18T12:13:42.644Z,33.29
2023-04-18T12:16:14.104Z,33.27
2023-04-18T12:18:44.334Z,33.27
2023-04-18T12:21:15.330Z,33.28
2023-04-18T12:23:47.401Z,33.26
2023-04-18T12:26:24.458Z,33.24
2023-04-18T12:28:55.533Z,33.25
2023-04-18T12:31:25.949Z,33.23
2023-04-18T12:33:56.585Z,33.22
2023-04-18T12:36:29.852Z,33.07
2023-04-18T12:39:00.090Z,32.87
2023-04-18T12:41:30.314Z,32.70
2023-04-18T12:44:00.683Z,32.63
2023-04-18T12:46:31.035Z,32.56
2023-04-18T12:49:01.959Z,32.46
2023-04-18T12:51:32.967Z,32.36
2023-04-18T12:54:03.153Z,32.26
2023-04-18T12:56:33.340Z,32.25
2023-04-18T12:59:03.524Z,32.26
2023-04-18T13:01:33.793Z,32.21
2023-04-18T13:04:12.512Z,32.22
2023-04-18T13:06:43.384Z,32.18
2023-04-18T13:09:13.946Z,32.15
2023-04-18T13:11:44.442Z,32.15
2023-04-18T13:14:14.890Z,32.13
2023-04-18T13:16:45.762Z,32.10
2023-04-18T13:19:16.200Z,32.09
2023-04-18T13:21:48.432Z,32.04
2023-04-18T13:24:19.891Z,32.02
2023-04-18T13:26:50.013Z,31.99
2023-04-18T13:29:20.576Z,31.92
2023-04-18T13:31:51.503Z,31.81
2023-04-18T13:34:21.673Z,31.74
2023-04-18T13:36:52.106Z,31.66
2023-04-18T13:39:24.188Z,31.59
2023-04-18T13:41:56.541Z,31.52
2023-04-18T13:44:28.247Z,31.46
2023-04-18T13:46:59.911Z,31.42
2023-04-18T13:49:30.411Z,31.38
2023-04-18T13:52:00.984Z,31.39
2023-04-18T13:54:32.666Z,31.34
2023-04-18T13:57:12.883Z,31.37
2023-04-18T13:59:43.607Z,31.39
2023-04-18T14:02:14.110Z,31.33
2023-04-18T14:04:45.051Z,31.33
2023-04-18T14:07:15.473Z,31.33
2023-04-18T14:09:45.750Z,31.29
2023-04-18T14:12:16.074Z,31.25
2023-04-18T14:14:46.256Z,31.16
2023-04-18T14:17:16.539Z,31.19
2023-04-18T14:19:46.905Z,31.15
2023-04-18T14:22:17.123Z,31.12
2023-04-18T14:24:47.635Z,31.05
2023-04-18T14:27:18.307Z,31.01
2023-04-18T14:29:50.233Z,30.98
2023-04-18T14:32:21.053Z,30.94
2023-04-18T14:34:52.165Z,30.90
2023-04-18T14:37:22.795Z,30.88
2023-04-18T14:39:53.080Z,30.87
2023-04-18T14:42:28.236Z,30.86
2023-04-18T14:44:58.608Z,30.85
2023-04-18T14:47:33.123Z,30.83
2023-04-18T14:50:03.554Z,30.90
2023-04-18T14:52:33.888Z,30.95
2023-04-18T14:55:04.202Z,30.97
2023-04-18T14:57:35.650Z,30.97
2023-04-18T15:00:11.383Z,30.98
2023-04-18T15:02:42.094Z,30.97
2023-04-18T15:05:13.260Z,30.95
2023-04-18T15:07:45.008Z,30.98
2023-04-18T15:10:16.566Z,30.98
2023-04-18T15:12:48.262Z,30.98
2023-04-18T15:15:18.790Z,30.99
2023-04-18T15:17:48.889Z,30.97
2023-04-18T15:20:19.251Z,30.93
2023-04-18T15:22:49.991Z,30.91
2023-04-18T15:25:20.119Z,30.87
2023-04-18T15:27:50.786Z,30.86
2023-04-18T15:30:21.457Z,30.84
2023-04-18T15:32:51.770Z,30.81
2023-04-18T15:35:22.471Z,30.79
2023-04-18T15:37:55.103Z,30.76
2023-04-18T15:40:26.705Z,30.77
2023-04-18T15:42:59.069Z,30.73
2023-04-18T15:45:29.307Z,30.68
2023-04-18T15:48:00.216Z,30.67
2023-04-18T15:50:32.116Z,30.66
2023-04-18T15:53:03.702Z,30.66
2023-04-18T15:55:34.347Z,30.63
2023-04-18T15:58:04.849Z,30.62
2023-04-18T16:00:35.275Z,30.59
2023-04-18T16:03:06.288Z,30.57
2023-04-18T16:05:36.967Z,30.57
2023-04-18T16:08:07.777Z,30.56
2023-04-18T16:10:38.746Z,30.54
2023-04-18T16:13:08.902Z,30.53
2023-04-18T16:15:43.434Z,30.48
2023-04-18T16:18:13.705Z,30.22
2023-04-18T16:20:44.143Z,30.51
2023-04-18T16:23:14.490Z,30.47
2023-04-18T16:25:44.626Z,30.48
2023-04-18T16:28:14.938Z,30.48
2023-04-18T16:30:47.105Z,30.47
2023-04-18T16:33:17.684Z,30.46
2023-04-18T16:35:47.803Z,30.46
2023-04-18T16:38:17.981Z,30.43
2023-04-18T16:40:48.211Z,30.38
2023-04-18T16:43:18.587Z,30.40
2023-04-18T16:45:48.740Z,30.35
2023-04-18T16:48:19.799Z,30.35
2023-04-18T16:50:49.967Z,30.33
2023-04-18T16:53:20.669Z,30.29
2023-04-18T16:55:54.704Z,30.27
2023-04-18T16:58:25.065Z,30.28
2023-04-18T17:00:55.378Z,30.25
2023-04-18T17:03:25.734Z,30.28
2023-04-18T17:05:56.066Z,30.27
2023-04-18T17:08:27.290Z,30.26
2023-04-18T17:11:01.042Z,30.26
2023-04-18T17:13:32.865Z,30.24
2023-04-18T17:16:04.421Z,30.21
2023-04-18T17:18:34.677Z,30.21
2023-04-18T17:21:04.998Z,30.19
2023-04-18T17:23:35.101Z,30.19
2023-04-18T17:26:05.289Z,30.16
2023-04-18T17:28:35.525Z,30.15
2023-04-18T17:31:06.274Z,30.16
2023-04-18T17:33:36.952Z,30.14
2023-04-18T17:36:07.718Z,30.13
2023-04-18T17:38:37.922Z,30.11
2023-04-18T17:41:08.133Z,30.11
2023-04-18T17:43:38.303Z,30.10
2023-04-18T17:46:08.725Z,30.11
2023-04-18T17:48:39.827Z,30.11
2023-04-18T17:51:09.946Z,30.11
2023-04-18T17:53:40.107Z,30.10
2023-04-18T17:56:11.640Z,30.09
2023-04-18T17:58:41.821Z,30.08
2023-04-18T18:01:22.513Z,30.09
2023-04-18T18:03:55.024Z,30.05
2023-04-18T18:06:25.344Z,30.06
2023-04-18T18:08:55.907Z,30.06
2023-04-18T18:11:26.027Z,30.06
2023-04-18T18:13:57.109Z,30.05
2023-04-18T18:16:27.540Z,30.02
2023-04-18T18:18:57.817Z,30.01
2023-04-18T18:21:28.550Z,29.98
2023-04-18T18:23:58.837Z,29.98
2023-04-18T18:26:29.233Z,29.96
2023-04-18T18:28:59.684Z,29.96
2023-04-18T18:31:30.177Z,29.96
2023-04-18T18:34:00.778Z,29.95
2023-04-18T18:36:31.446Z,29.92
2023-04-18T18:39:02.042Z,29.92
2023-04-18T18:41:50.742Z,29.91
2023-04-18T18:44:20.894Z,29.88
2023-04-18T18:46:51.101Z,29.89
2023-04-18T18:49:21.807Z,29.89
2023-04-18T18:51:52.033Z,29.88
2023-04-18T18:54:22.369Z,29.86
2023-04-18T18:56:53.192Z,29.85
2023-04-18T18:59:23.416Z,29.88
2023-04-18T19:01:53.553Z,29.83
2023-04-18T19:04:23.902Z,29.84
2023-04-18T19:06:55.007Z,29.84
2023-04-18T19:09:25.074Z,29.82
2023-04-18T19:11:56.382Z,29.82
2023-04-18T19:14:26.620Z,29.82
2023-04-18T19:16:59.256Z,29.81
2023-04-18T19:19:29.430Z,29.80
2023-04-18T19:21:59.723Z,29.78
2023-04-18T19:24:30.069Z,29.78
2023-04-18T19:27:01.223Z,29.77
2023-04-18T19:29:32.794Z,29.76
2023-04-18T19:32:03.464Z,29.75
2023-04-18T19:34:33.896Z,29.75
2023-04-18T19:37:05.035Z,29.75
2023-04-18T19:39:35.238Z,29.74
2023-04-18T19:42:06.607Z,29.73
2023-04-18T19:44:37.011Z,29.74
2023-04-18T19:47:07.225Z,29.72
2023-04-18T19:49:38.155Z,29.72
2023-04-18T19:52:08.271Z,29.72
2023-04-18T19:54:38.440Z,29.71
2023-04-18T19:57:08.780Z,29.69
2023-04-18T19:59:38.965Z,29.69
2023-04-18T20:02:09.169Z,29.67
2023-04-18T20:04:39.752Z,29.66
2023-04-18T20:07:10.011Z,29.64
2023-04-18T20:09:40.761Z,29.63
2023-04-18T20:12:10.963Z,29.66
2023-04-18T20:14:41.648Z,29.65
2023-04-18T20:17:11.950Z,29.63
2023-04-18T20:19:42.771Z,29.59
2023-04-18T20:22:12.850Z,29.56
2023-04-18T20:24:43.121Z,29.55
2023-04-18T20:27:13.956Z,29.53
2023-04-18T20:29:44.360Z,29.52
2023-04-18T20:32:14.883Z,29.49
2023-04-18T20:34:44.941Z,29.47
2023-04-18T20:37:20.134Z,29.44
2023-04-18T20:39:50.303Z,29.39
2023-04-18T20:42:21.552Z,29.40
2023-04-18T20:44:52.199Z,29.39
2023-04-18T20:47:22.827Z,29.36
2023-04-18T20:49:53.812Z,29.36
2023-04-18T20:52:24.152Z,29.34
2023-04-18T20:54:54.515Z,29.35
2023-04-18T20:57:24.688Z,29.33
2023-04-18T20:59:54.885Z,29.31
2023-04-18T21:02:25.118Z,29.29
2023-04-18T21:04:55.570Z,29.27
2023-04-18T21:07:25.755Z,29.27
2023-04-18T21:09:55.784Z,29.24
2023-04-18T21:12:25.869Z,29.19
2023-04-18T21:14:56.045Z,29.19
2023-04-18T21:17:27.001Z,29.17
2023-04-18T21:19:57.354Z,29.15
2023-04-18T21:22:28.105Z,29.14
2023-04-18T21:24:58.260Z,29.11
2023-04-18T21:27:28.340Z,29.08
2023-04-18T21:29:58.476Z,29.07
2023-04-18T21:32:28.699Z,29.06
2023-04-18T21:34:59.430Z,29.05
2023-04-18T21:37:30.343Z,29.03
2023-04-18T21:40:00.497Z,29.02
2023-04-18T21:42:30.686Z,29.01
2023-04-18T21:45:00.874Z,29.01
2023-04-18T21:47:31.122Z,29.00
2023-04-18T21:50:01.857Z,29.02
2023-04-18T21:52:32.248Z,29.00
2023-04-18T21:55:02.601Z,28.96
2023-04-18T21:57:32.763Z,28.94
2023-04-18T22:00:02.954Z,28.96
2023-04-18T22:02:39.216Z,28.96
2023-04-18T22:05:10.378Z,28.93
2023-04-18T22:07:54.487Z,28.92
2023-04-18T22:10:28.029Z,28.89
2023-04-18T22:12:59.925Z,28.90
2023-04-18T22:15:30.249Z,28.95
2023-04-18T22:18:00.986Z,28.94
2023-04-18T22:20:32.982Z,28.93
2023-04-18T22:23:05.821Z,28.94
2023-04-18T22:25:35.997Z,28.92
2023-04-18T22:28:06.457Z,28.88
2023-04-18T22:30:36.581Z,28.88
2023-04-18T22:33:06.809Z,28.84
2023-04-18T22:35:37.133Z,28.84
2023-04-18T22:38:07.724Z,28.81
2023-04-18T22:40:38.198Z,28.79
2023-04-18T22:43:08.293Z,28.72
2023-04-18T22:45:38.427Z,28.70
2023-04-18T22:48:12.777Z,28.66
2023-04-18T22:50:51.798Z,28.63
2023-04-18T22:53:22.462Z,28.63
2023-04-18T22:55:52.972Z,28.60
2023-04-18T22:58:23.168Z,28.59
2023-04-18T23:00:53.573Z,28.57
2023-04-18T23:03:24.128Z,28.62
2023-04-18T23:05:54.953Z,28.74
2023-04-18T23:08:25.185Z,28.83
2023-04-18T23:10:55.900Z,28.95
2023-04-18T23:13:29.195Z,29.03
2023-04-18T23:15:59.988Z,29.13
2023-04-18T23:18:33.342Z,29.34
2023-04-18T23:21:03.585Z,29.50
2023-04-18T23:23:34.180Z,29.64
2023-04-18T23:26:04.470Z,29.73
2023-04-18T23:28:34.881Z,29.83
2023-04-18T23:31:05.184Z,29.92
2023-04-18T23:33:35.484Z,30.00
2023-04-18T23:36:05.745Z,30.06
2023-04-18T23:38:38.595Z,30.13
2023-04-18T23:41:08.696Z,30.19
2023-04-18T23:43:38.958Z,30.23
2023-04-18T23:46:09.097Z,30.27
2023-04-18T23:48:39.413Z,30.32
2023-04-18T23:51:10.487Z,30.33
2023-04-18T23:53:40.652Z,30.40
2023-04-18T23:56:13.663Z,30.44
2023-04-18T23:58:43.882Z,30.48
